createdAt,value
2023-03-05T00:01:35.534Z,10.30
2023-03-05T00:04:03.066Z,9.67
2023-03-05T00:06:30.627Z,11.00
2023-03-05T00:08:58.175Z,10.83
2023-03-05T00:11:25.685Z,10.80
2023-03-05T00:13:53.276Z,10.80
2023-03-05T00:16:21.637Z,11.73
2023-03-05T00:18:49.117Z,11.00
2023-03-05T00:21:19.756Z,10.73
2023-03-05T00:23:47.294Z,11.47
2023-03-05T00:26:14.824Z,11.43
2023-03-05T00:28:43.178Z,10.00
2023-03-05T00:31:10.762Z,10.33
2023-03-05T00:33:38.238Z,10.53
2023-03-05T00:36:06.997Z,10.30
2023-03-05T00:38:34.523Z,11.23
2023-03-05T00:41:02.067Z,10.90
2023-03-05T00:43:29.660Z,11.27
2023-03-05T00:45:57.203Z,10.93
2023-03-05T00:48:24.729Z,11.37
2023-03-05T00:50:53.622Z,10.73
2023-03-05T00:53:21.158Z,10.43
2023-03-05T00:55:49.473Z,13.27
2023-03-05T00:58:17.037Z,11.90
2023-03-05T01:00:44.603Z,11.50
2023-03-05T01:03:12.844Z,10.97
2023-03-05T01:05:40.509Z,10.77
2023-03-05T01:08:07.948Z,10.70
2023-03-05T01:10:36.247Z,11.27
2023-03-05T01:13:04.079Z,10.23
2023-03-05T01:15:31.602Z,11.20
2023-03-05T01:17:59.110Z,11.93
2023-03-05T01:20:26.675Z,10.90
2023-03-05T01:22:54.218Z,10.70
2023-03-05T01:25:21.747Z,10.73
2023-03-05T01:27:49.320Z,10.73
2023-03-05T01:30:17.607Z,14.52
2023-03-05T01:32:45.907Z,12.50
2023-03-05T01:35:16.193Z,12.07
2023-03-05T01:37:44.484Z,12.57
2023-03-05T01:40:12.175Z,12.03
2023-03-05T01:42:40.550Z,11.10
2023-03-05T01:45:11.097Z,12.83
2023-03-05T01:47:38.649Z,11.80
2023-03-05T01:50:06.223Z,15.68
2023-03-05T01:52:33.748Z,13.10
2023-03-05T01:55:01.282Z,15.70
2023-03-05T01:57:35.620Z,13.30
2023-03-05T02:00:03.143Z,12.57
2023-03-05T02:02:31.450Z,11.87
2023-03-05T02:05:01.711Z,12.43
2023-03-05T02:07:29.256Z,11.03
2023-03-05T02:09:56.779Z,11.40
2023-03-05T02:12:25.130Z,12.40
2023-03-05T02:14:52.669Z,11.73
2023-03-05T02:17:20.203Z,11.23
2023-03-05T02:19:50.731Z,13.90
2023-03-05T02:22:18.274Z,12.63
2023-03-05T02:24:45.800Z,12.47
2023-03-05T02:27:13.364Z,11.77
2023-03-05T02:29:41.687Z,11.40
2023-03-05T02:32:09.264Z,11.90
2023-03-05T02:34:37.593Z,10.73
2023-03-05T02:37:05.079Z,10.80
2023-03-05T02:39:32.625Z,14.07
2023-03-05T02:42:00.157Z,12.97
2023-03-05T02:44:28.461Z,15.13
2023-03-05T02:46:55.998Z,12.70
2023-03-05T02:49:24.339Z,12.40
2023-03-05T02:51:51.863Z,11.40
2023-03-05T02:54:19.389Z,15.05
2023-03-05T02:56:47.712Z,12.60
2023-03-05T02:59:15.257Z,11.70
2023-03-05T03:01:42.832Z,11.80
2023-03-05T03:04:11.134Z,11.80
2023-03-05T03:06:38.685Z,11.83
2023-03-05T03:09:06.221Z,12.47
2023-03-05T03:11:33.776Z,12.13
2023-03-05T03:14:01.315Z,12.30
2023-03-05T03:16:28.863Z,12.27
2023-03-05T03:18:56.401Z,11.77
2023-03-05T03:21:23.946Z,13.87
2023-03-05T03:23:51.464Z,12.83
2023-03-05T03:26:19.107Z,16.85
2023-03-05T03:28:47.404Z,14.43
2023-03-05T03:31:15.005Z,14.20
2023-03-05T03:33:43.297Z,13.27
2023-03-05T03:36:10.836Z,12.47
2023-03-05T03:38:38.397Z,12.97
2023-03-05T03:41:08.743Z,12.73
2023-03-05T03:43:36.275Z,12.77
2023-03-05T03:46:06.640Z,13.13
2023-03-05T03:48:34.178Z,12.77
2023-03-05T03:51:01.692Z,12.97
2023-03-05T03:53:29.218Z,15.90
2023-03-05T03:56:00.304Z,14.00
2023-03-05T03:58:27.897Z,12.60
2023-03-05T04:00:55.371Z,11.43
2023-03-05T04:03:23.691Z,12.97
2023-03-05T04:05:51.234Z,12.13
2023-03-05T04:08:18.770Z,13.37
2023-03-05T04:10:47.090Z,12.20
2023-03-05T04:13:14.608Z,11.00
2023-03-05T04:15:42.945Z,10.63
2023-03-05T04:18:10.465Z,11.20
2023-03-05T04:20:38.048Z,11.50
2023-03-05T04:23:05.564Z,12.00
2023-03-05T04:25:33.876Z,14.87
2023-03-05T04:28:01.403Z,12.33
2023-03-05T04:30:29.770Z,10.90
2023-03-05T04:32:57.362Z,11.33
2023-03-05T04:35:24.964Z,9.93
2023-03-05T04:37:53.179Z,9.53
2023-03-05T04:40:20.725Z,9.20
2023-03-05T04:42:49.016Z,8.67
2023-03-05T04:45:16.538Z,8.77
2023-03-05T04:47:44.105Z,8.77
2023-03-05T04:50:12.447Z,8.70
2023-03-05T04:52:39.952Z,8.90
2023-03-05T04:55:08.428Z,8.80
2023-03-05T04:57:36.726Z,8.00
2023-03-05T05:00:09.513Z,8.20
2023-03-05T05:02:37.137Z,7.20
2023-03-05T05:05:04.647Z,7.60
2023-03-05T05:07:32.169Z,7.90
2023-03-05T05:10:00.506Z,8.77
2023-03-05T05:12:30.714Z,8.47
2023-03-05T05:15:00.969Z,9.32
2023-03-05T05:17:28.539Z,8.43
2023-03-05T05:19:56.835Z,8.80
2023-03-05T05:22:24.358Z,9.10
2023-03-05T05:24:51.932Z,8.63
2023-03-05T05:27:19.467Z,11.55
2023-03-05T05:29:46.992Z,9.53
2023-03-05T05:32:14.639Z,9.13
2023-03-05T05:34:42.102Z,9.13
2023-03-05T05:37:09.638Z,8.73
2023-03-05T05:39:38.030Z,9.27
2023-03-05T05:42:05.564Z,8.67
2023-03-05T05:44:33.093Z,8.63
2023-03-05T05:47:00.647Z,8.17
2023-03-05T05:49:28.183Z,8.93
2023-03-05T05:51:55.704Z,10.05
2023-03-05T05:54:23.264Z,9.63
2023-03-05T05:56:51.556Z,8.60
2023-03-05T05:59:19.850Z,8.10
2023-03-05T06:01:47.483Z,8.97
2023-03-05T06:06:51.767Z,8.30
2023-03-05T06:09:19.302Z,8.43
2023-03-05T06:11:46.846Z,7.67
2023-03-05T06:14:15.175Z,8.00
2023-03-05T06:16:42.779Z,7.67
2023-03-05T06:19:12.741Z,8.50
2023-03-05T06:21:40.913Z,9.03
2023-03-05T06:24:08.448Z,7.40
2023-03-05T06:26:35.973Z,7.70
2023-03-05T06:29:04.304Z,7.10
2023-03-05T06:31:31.840Z,8.03
2023-03-05T06:33:59.374Z,7.33
2023-03-05T06:36:27.714Z,7.73
2023-03-05T06:38:55.246Z,6.97
2023-03-05T06:41:25.979Z,7.13
2023-03-05T06:43:53.555Z,7.43
2023-03-05T06:46:21.159Z,7.10
2023-03-05T06:48:48.610Z,7.80
2023-03-05T06:51:19.688Z,7.63
2023-03-05T06:53:49.292Z,8.53
2023-03-05T06:56:15.516Z,9.23
2023-03-05T06:58:43.110Z,9.53
2023-03-05T07:01:10.665Z,9.37
2023-03-05T07:03:38.163Z,9.33
2023-03-05T07:06:05.736Z,10.37
2023-03-05T07:08:34.039Z,10.63
2023-03-05T07:11:01.551Z,10.63
2023-03-05T07:13:29.452Z,11.73
2023-03-05T07:15:57.032Z,11.77
2023-03-05T07:18:24.523Z,12.30
2023-03-05T07:20:52.370Z,12.37
2023-03-05T07:23:19.908Z,15.07
2023-03-05T07:25:47.438Z,11.80
2023-03-05T07:28:15.778Z,11.60
2023-03-05T07:30:43.330Z,11.83
2023-03-05T07:33:10.827Z,10.43
2023-03-05T07:35:41.955Z,9.30
2023-03-05T07:38:09.387Z,9.13
2023-03-05T07:40:36.903Z,8.73
2023-03-05T07:43:04.507Z,7.23
2023-03-05T07:45:32.037Z,7.17
2023-03-05T07:47:59.569Z,8.70
2023-03-05T07:50:27.950Z,7.80
2023-03-05T07:52:55.443Z,6.60
2023-03-05T07:55:22.962Z,8.57
2023-03-05T07:57:51.289Z,7.23
2023-03-05T08:00:18.855Z,6.63
2023-03-05T08:02:46.421Z,6.90
2023-03-05T08:05:13.966Z,8.50
2023-03-05T08:07:41.499Z,7.77
2023-03-05T08:10:09.269Z,6.80
2023-03-05T08:12:36.842Z,5.77
2023-03-05T08:15:04.378Z,6.40
2023-03-05T08:17:31.891Z,5.60
2023-03-05T08:19:59.466Z,7.10
2023-03-05T08:22:27.768Z,7.15
2023-03-05T08:24:55.297Z,5.97
2023-03-05T08:27:22.856Z,5.43
2023-03-05T08:29:51.140Z,4.83
2023-03-05T08:32:19.464Z,4.20
2023-03-05T08:34:47.018Z,5.03
2023-03-05T08:37:14.542Z,4.87
2023-03-05T08:39:42.845Z,4.90
2023-03-05T08:42:10.410Z,4.40
2023-03-05T08:44:38.008Z,5.20
2023-03-05T08:47:05.544Z,4.07
2023-03-05T08:49:33.136Z,5.00
2023-03-05T08:52:00.646Z,4.17
2023-03-05T08:54:28.202Z,4.45
2023-03-05T08:56:55.786Z,4.40
2023-03-05T08:59:23.331Z,3.70
2023-03-05T09:01:50.950Z,4.07
2023-03-05T09:04:18.488Z,3.90
2023-03-05T09:06:46.007Z,3.57
2023-03-05T09:09:13.543Z,3.90
2023-03-05T09:11:41.117Z,3.80
2023-03-05T09:14:08.670Z,4.30
2023-03-05T09:16:36.296Z,3.67
2023-03-05T09:19:04.538Z,3.70
2023-03-05T09:21:32.060Z,3.67
2023-03-05T09:23:59.636Z,4.20
2023-03-05T09:26:27.939Z,4.03
2023-03-05T09:28:55.459Z,3.37
2023-03-05T09:31:23.080Z,3.60
2023-03-05T09:33:51.342Z,3.20
2023-03-05T09:36:21.541Z,4.13
2023-03-05T09:38:49.061Z,4.28
2023-03-05T09:41:16.650Z,3.33
2023-03-05T09:43:49.848Z,3.43
2023-03-05T09:46:26.472Z,3.70
2023-03-05T09:48:54.757Z,2.80
2023-03-05T09:51:24.989Z,2.47
2023-03-05T09:53:58.108Z,2.57
2023-03-05T09:56:37.582Z,3.13
2023-03-05T09:59:05.497Z,2.87
2023-03-05T10:01:35.992Z,2.97
2023-03-05T10:04:07.057Z,3.13
2023-03-05T10:06:35.361Z,2.20
2023-03-05T10:09:11.368Z,2.17
2023-03-05T10:11:48.156Z,2.10
2023-03-05T10:14:18.446Z,1.83
2023-03-05T10:17:04.547Z,2.17
2023-03-05T10:19:46.881Z,1.90
2023-03-05T10:22:29.945Z,1.73
2023-03-05T10:25:03.325Z,1.40
2023-03-05T10:27:33.876Z,1.63
2023-03-05T10:30:34.845Z,1.30
2023-03-05T10:33:11.873Z,1.67
2023-03-05T10:36:06.926Z,1.47
2023-03-05T10:38:50.131Z,2.10
2023-03-05T10:41:17.706Z,0.40
2023-03-05T10:44:09.771Z,0.60
2023-03-05T10:46:37.351Z,0.13
2023-03-05T10:49:13.884Z,0.30
2023-03-05T10:51:42.222Z,0.53
2023-03-05T10:54:27.487Z,0.30
2023-03-05T10:57:12.983Z,1.10
2023-03-05T10:59:52.426Z,0.73
2023-03-05T11:02:20.040Z,0.40
2023-03-05T11:04:47.538Z,0.50
2023-03-05T11:07:18.022Z,0.30
2023-03-05T11:10:00.921Z,0.30
2023-03-05T11:12:31.985Z,0.50
2023-03-05T11:15:03.112Z,0.77
2023-03-05T11:17:30.665Z,0.90
2023-03-05T11:19:58.960Z,1.10
2023-03-05T11:22:26.494Z,1.23
2023-03-05T11:25:16.302Z,0.80
2023-03-05T11:27:51.475Z,1.10
2023-03-05T11:30:26.221Z,1.00
2023-03-05T11:33:15.291Z,1.00
2023-03-05T11:35:42.879Z,1.20
2023-03-05T11:38:20.074Z,1.90
2023-03-05T11:40:47.658Z,2.00
2023-03-05T11:43:17.844Z,1.40
2023-03-05T11:45:46.203Z,1.13
2023-03-05T11:48:16.465Z,0.93
2023-03-05T11:50:44.068Z,0.63
2023-03-05T11:53:26.492Z,0.80
2023-03-05T11:56:19.184Z,0.83
2023-03-05T11:58:55.338Z,1.27
2023-03-05T12:01:22.883Z,0.75
2023-03-05T12:03:50.484Z,0.83
2023-03-05T12:06:33.189Z,1.27
2023-03-05T12:09:00.705Z,0.70
2023-03-05T12:11:29.004Z,0.87
2023-03-05T12:14:11.627Z,0.70
2023-03-05T12:16:41.908Z,0.60
2023-03-05T12:19:24.967Z,1.17
2023-03-05T12:21:52.495Z,0.90
2023-03-05T12:24:28.395Z,0.73
2023-03-05T12:26:54.644Z,0.67
2023-03-05T12:29:34.095Z,0.60
2023-03-05T12:32:03.035Z,0.60
2023-03-05T12:34:41.972Z,1.03
2023-03-05T12:37:12.256Z,0.70
2023-03-05T12:39:48.916Z,1.00
2023-03-05T12:42:31.572Z,0.90
2023-03-05T12:45:12.233Z,0.80
2023-03-05T12:47:45.961Z,1.20
2023-03-05T12:50:28.533Z,1.10
2023-03-05T12:52:58.763Z,1.47
2023-03-05T12:55:34.922Z,1.07
2023-03-05T12:58:05.481Z,0.83
2023-03-05T13:00:38.752Z,0.80
2023-03-05T13:03:06.214Z,1.27
2023-03-05T13:05:34.000Z,1.10
2023-03-05T13:08:20.178Z,1.37
2023-03-05T13:10:53.775Z,1.30
2023-03-05T13:13:21.622Z,2.03
2023-03-05T13:15:48.850Z,1.50
2023-03-05T13:18:17.193Z,1.90
2023-03-05T13:20:44.725Z,1.70
2023-03-05T13:23:18.189Z,1.70
2023-03-05T13:25:45.794Z,1.60
2023-03-05T13:28:14.044Z,1.90
2023-03-05T13:30:44.287Z,1.70
2023-03-05T13:33:14.822Z,1.70
2023-03-05T13:35:42.373Z,1.70
2023-03-05T13:38:09.881Z,1.20
2023-03-05T13:40:37.456Z,1.30
2023-03-05T13:43:11.726Z,1.80
2023-03-05T13:45:39.314Z,1.80
2023-03-05T13:48:08.462Z,1.50
2023-03-05T13:50:36.006Z,1.43
2023-03-05T13:53:18.923Z,1.83
2023-03-05T13:55:49.862Z,2.33
2023-03-05T13:58:48.019Z,1.90
2023-03-05T14:01:15.958Z,1.80
2023-03-05T14:03:43.058Z,2.12
2023-03-05T14:06:10.704Z,2.90
2023-03-05T14:08:38.185Z,2.20
2023-03-05T14:11:15.346Z,1.77
2023-03-05T14:13:42.699Z,2.33
2023-03-05T14:16:13.457Z,2.50
2023-03-05T14:18:56.511Z,2.50
2023-03-05T14:21:24.042Z,2.03
2023-03-05T14:23:51.579Z,2.30
2023-03-05T14:26:29.584Z,2.37
2023-03-05T14:28:59.387Z,2.23
2023-03-05T14:31:27.712Z,2.60
2023-03-05T14:33:55.272Z,2.63
2023-03-05T14:36:25.572Z,2.70
2023-03-05T14:38:53.116Z,2.80
2023-03-05T14:41:32.591Z,2.60
2023-03-05T14:44:00.138Z,2.70
2023-03-05T14:46:27.737Z,2.70
2023-03-05T14:48:56.009Z,2.53
2023-03-05T14:51:23.555Z,2.77
2023-03-05T14:53:54.005Z,2.53
2023-03-05T14:56:24.522Z,2.60
2023-03-05T14:58:52.070Z,2.50
2023-03-05T15:01:19.613Z,3.50
2023-03-05T15:03:47.168Z,3.00
2023-03-05T15:06:14.688Z,2.87
2023-03-05T15:08:43.064Z,2.70
2023-03-05T15:11:11.498Z,2.90
2023-03-05T15:13:38.116Z,2.77
2023-03-05T15:16:05.750Z,3.50
2023-03-05T15:18:33.282Z,3.00
2023-03-05T15:21:00.799Z,3.47
2023-03-05T15:23:28.334Z,3.37
2023-03-05T15:25:55.909Z,3.65
2023-03-05T15:28:23.428Z,3.37
2023-03-05T15:30:51.810Z,2.70
2023-03-05T15:33:19.315Z,2.67
2023-03-05T15:35:46.857Z,4.60
2023-03-05T15:38:14.367Z,3.07
2023-03-05T15:40:41.944Z,2.63
2023-03-05T15:43:10.246Z,2.95
2023-03-05T15:45:37.825Z,2.20
2023-03-05T15:48:05.704Z,2.50
2023-03-05T15:50:33.228Z,2.70
2023-03-05T15:53:00.803Z,2.43
2023-03-05T15:55:29.100Z,2.30
2023-03-05T15:57:56.642Z,2.90
2023-03-05T16:00:25.558Z,2.53
2023-03-05T16:02:52.576Z,3.13
2023-03-05T16:05:20.064Z,3.57
2023-03-05T16:07:48.649Z,4.43
2023-03-05T16:10:15.250Z,3.70
2023-03-05T16:12:42.813Z,4.30
2023-03-05T16:15:10.540Z,3.50
2023-03-05T16:17:38.868Z,3.20
2023-03-05T16:20:06.511Z,2.77
2023-03-05T16:22:34.049Z,3.77
2023-03-05T16:25:02.389Z,3.40
2023-03-05T16:27:29.921Z,4.30
2023-03-05T16:29:57.464Z,3.67
2023-03-05T16:32:25.083Z,3.67
2023-03-05T16:34:52.560Z,3.30
2023-03-05T16:37:20.867Z,3.37
2023-03-05T16:39:48.448Z,3.50
2023-03-05T16:42:15.981Z,3.20
2023-03-05T16:44:43.522Z,3.20
2023-03-05T16:47:12.012Z,3.30
2023-03-05T16:49:39.506Z,3.97
2023-03-05T16:52:18.243Z,3.80
2023-03-05T16:54:34.625Z,5.10
2023-03-05T16:57:02.168Z,5.20
2023-03-05T16:59:29.660Z,4.50
2023-03-05T17:01:57.731Z,3.50
2023-03-05T17:04:25.353Z,4.20
2023-03-05T17:06:52.804Z,4.62
2023-03-05T17:09:20.363Z,4.00
2023-03-05T17:11:47.902Z,4.10
2023-03-05T17:14:16.193Z,5.55
2023-03-05T17:16:43.807Z,4.30
2023-03-05T17:19:11.291Z,4.17
2023-03-05T17:21:41.980Z,4.40
2023-03-05T17:24:07.145Z,4.00
2023-03-05T17:26:34.670Z,4.27
2023-03-05T17:29:05.883Z,4.23
2023-03-05T17:31:33.507Z,4.17
2023-03-05T17:34:00.991Z,4.80
2023-03-05T17:36:28.526Z,4.40
2023-03-05T17:38:56.196Z,4.20
2023-03-05T17:41:23.728Z,3.97
2023-03-05T17:43:52.018Z,4.47
2023-03-05T17:46:19.606Z,4.47
2023-03-05T17:48:47.147Z,4.27
2023-03-05T17:51:14.720Z,5.13
2023-03-05T17:53:43.024Z,4.33
2023-03-05T17:56:10.589Z,4.40
2023-03-05T17:58:38.166Z,4.78
2023-03-05T18:01:05.797Z,4.27
2023-03-05T18:03:33.242Z,4.30
2023-03-05T18:06:00.777Z,4.80
2023-03-05T18:08:28.351Z,4.13
2023-03-05T18:10:55.907Z,4.43
2023-03-05T18:13:23.418Z,4.20
2023-03-05T18:15:51.780Z,4.10
2023-03-05T18:18:19.318Z,4.17
2023-03-05T18:20:46.842Z,4.67
2023-03-05T18:23:15.018Z,4.50
2023-03-05T18:25:42.555Z,3.93
2023-03-05T18:28:10.887Z,5.60
2023-03-05T18:30:38.468Z,5.70
2023-03-05T18:33:05.974Z,4.70
2023-03-05T18:35:33.570Z,4.60
2023-03-05T18:38:01.868Z,4.60
2023-03-05T18:40:29.400Z,4.73
2023-03-05T18:42:56.963Z,6.27
2023-03-05T18:45:24.505Z,5.33
2023-03-05T18:47:52.032Z,5.27
2023-03-05T18:50:19.564Z,5.03
2023-03-05T18:52:47.943Z,5.07
2023-03-05T18:55:15.499Z,5.90
2023-03-05T18:57:43.006Z,4.80
2023-03-05T19:00:10.848Z,4.30
2023-03-05T19:02:38.381Z,4.60
2023-03-05T19:05:06.689Z,4.60
2023-03-05T19:07:34.283Z,4.93
2023-03-05T19:10:04.569Z,5.07
2023-03-05T19:12:32.086Z,4.63
2023-03-05T19:14:59.677Z,5.10
2023-03-05T19:17:27.205Z,6.12
2023-03-05T19:19:54.738Z,5.23
2023-03-05T19:22:22.611Z,7.55
2023-03-05T19:24:50.141Z,5.90
2023-03-05T19:27:17.649Z,7.30
2023-03-05T19:29:45.227Z,7.43
2023-03-05T19:32:13.623Z,8.57
2023-03-05T19:34:41.100Z,7.87
2023-03-05T19:37:09.414Z,8.77
2023-03-05T19:39:36.936Z,6.80
2023-03-05T19:42:04.469Z,7.83
2023-03-05T19:44:33.802Z,7.17
2023-03-05T19:47:01.333Z,6.87
2023-03-05T19:49:28.871Z,5.20
2023-03-05T19:51:57.232Z,5.53
2023-03-05T19:54:24.762Z,5.80
2023-03-05T19:56:53.644Z,6.47
2023-03-05T19:59:20.182Z,6.33
2023-03-05T20:01:47.796Z,6.30
2023-03-05T20:04:15.244Z,6.10
2023-03-05T20:06:43.570Z,5.90
2023-03-05T20:09:11.094Z,6.30
2023-03-05T20:11:39.376Z,5.30
2023-03-05T20:14:07.718Z,5.73
2023-03-05T20:16:38.249Z,7.68
2023-03-05T20:19:05.828Z,8.00
2023-03-05T20:21:37.117Z,7.50
2023-03-05T20:24:04.655Z,9.65
2023-03-05T20:26:32.194Z,8.40
2023-03-05T20:29:00.532Z,8.30
2023-03-05T20:31:28.155Z,6.47
2023-03-05T20:33:55.601Z,6.07
2023-03-05T20:36:23.194Z,5.83
2023-03-05T20:38:50.727Z,4.80
2023-03-05T20:41:19.021Z,4.27
2023-03-05T20:43:49.113Z,4.37
2023-03-05T20:46:20.237Z,5.70
2023-03-05T20:48:47.709Z,6.90
2023-03-05T20:51:16.100Z,7.10
2023-03-05T20:53:43.600Z,5.73
2023-03-05T20:56:11.131Z,5.97
2023-03-05T20:58:38.730Z,5.47
2023-03-05T21:01:06.317Z,6.33
2023-03-05T21:03:33.780Z,4.20
2023-03-05T21:06:02.116Z,4.10
2023-03-05T21:08:29.654Z,4.47
2023-03-05T21:10:57.830Z,4.63
2023-03-05T21:13:25.393Z,4.23
2023-03-05T21:15:52.918Z,3.40
2023-03-05T21:18:22.804Z,2.90
2023-03-05T21:20:50.963Z,2.53
2023-03-05T21:23:18.483Z,4.78
2023-03-05T21:25:46.034Z,4.63
2023-03-05T21:28:14.363Z,3.80
2023-03-05T21:30:42.158Z,3.70
2023-03-05T21:33:10.462Z,3.40
2023-03-05T21:35:38.130Z,3.80
2023-03-05T21:38:05.586Z,4.20
2023-03-05T21:40:33.122Z,3.40
2023-03-05T21:43:00.715Z,3.60
2023-03-05T21:45:28.298Z,3.73
2023-03-05T21:47:55.784Z,3.97
2023-03-05T21:50:24.117Z,3.43
2023-03-05T21:52:51.640Z,3.40
2023-03-05T21:55:19.164Z,3.70
2023-03-05T21:57:46.728Z,3.80
2023-03-05T22:00:15.038Z,4.00
2023-03-05T22:02:42.562Z,3.80
2023-03-05T22:05:11.664Z,5.10
2023-03-05T22:07:39.974Z,4.83
2023-03-05T22:10:07.563Z,4.43
2023-03-05T22:13:11.382Z,4.33
2023-03-05T22:15:47.365Z,4.82
2023-03-05T22:18:15.691Z,4.20
2023-03-05T22:20:43.219Z,4.20
2023-03-05T22:23:10.757Z,4.13
2023-03-05T22:25:39.113Z,3.90
2023-03-05T22:28:06.652Z,4.10
2023-03-05T22:30:34.224Z,4.00
2023-03-05T22:33:01.754Z,3.90
2023-03-05T22:35:29.318Z,3.50
2023-03-05T22:37:57.590Z,3.87
2023-03-05T22:40:25.160Z,3.80
2023-03-05T22:42:52.688Z,3.87
2023-03-05T22:45:20.226Z,5.20
2023-03-05T22:47:48.560Z,3.70
2023-03-05T22:50:16.079Z,3.80
2023-03-05T22:52:43.620Z,4.07
2023-03-05T22:55:11.936Z,4.03
2023-03-05T22:57:39.490Z,3.93
2023-03-05T23:00:07.136Z,4.30
2023-03-05T23:02:34.720Z,3.80
2023-03-05T23:05:02.250Z,4.10
2023-03-05T23:07:29.781Z,4.20
2023-03-05T23:10:00.097Z,4.27
2023-03-05T23:12:27.616Z,4.83
2023-03-05T23:14:55.137Z,4.33
2023-03-05T23:17:23.459Z,4.20
2023-03-05T23:19:51.056Z,4.20
2023-03-05T23:22:18.581Z,4.60
2023-03-05T23:24:46.153Z,5.35
2023-03-05T23:27:16.481Z,4.60
2023-03-05T23:29:59.108Z,4.87
2023-03-05T23:32:29.322Z,4.70
2023-03-05T23:34:56.753Z,4.57
2023-03-05T23:37:24.338Z,5.87
2023-03-05T23:39:51.864Z,4.97
2023-03-05T23:42:19.394Z,4.83
2023-03-05T23:44:47.750Z,4.60
2023-03-05T23:47:15.263Z,5.33
2023-03-05T23:49:42.867Z,4.13
2023-03-05T23:52:10.360Z,4.63
2023-03-05T23:54:37.966Z,5.07
2023-03-05T23:57:05.510Z,6.10
2023-03-05T23:59:33.118Z,6.35
